createdAt,value
2017-08-03T00:00:20.211Z,17.70
2017-08-03T00:02:47.744Z,17.70
2017-08-03T00:05:15.282Z,17.60
2017-08-03T00:07:42.800Z,17.60
2017-08-03T00:10:11.107Z,17.70
2017-08-03T00:12:38.623Z,17.70
2017-08-03T00:15:06.151Z,17.80
2017-08-03T00:17:33.694Z,17.80
2017-08-03T00:20:01.229Z,17.80
2017-08-03T00:22:28.771Z,17.80
2017-08-03T00:24:56.295Z,17.80
2017-08-03T00:27:23.835Z,17.80
2017-08-03T00:29:51.356Z,17.90
2017-08-03T00:32:18.894Z,17.90
2017-08-03T00:34:46.419Z,17.90
2017-08-03T00:37:13.950Z,17.90
2017-08-03T00:39:41.471Z,17.90
2017-08-03T00:42:09.018Z,17.90
2017-08-03T00:44:36.539Z,17.90
2017-08-03T00:47:04.062Z,17.70
2017-08-03T00:49:31.600Z,17.50
2017-08-03T00:51:59.127Z,17.40
2017-08-03T00:54:26.666Z,17.40
2017-08-03T00:56:54.191Z,17.40
2017-08-03T00:59:21.724Z,17.50
2017-08-03T01:01:49.254Z,17.50
2017-08-03T01:04:16.791Z,17.50
2017-08-03T01:06:45.083Z,17.40
2017-08-03T01:09:12.622Z,17.40
2017-08-03T01:11:40.156Z,17.30
2017-08-03T01:14:07.699Z,17.20
2017-08-03T01:16:35.983Z,17.30
2017-08-03T01:19:03.507Z,17.30
2017-08-03T01:21:31.814Z,17.40
2017-08-03T01:23:59.343Z,17.30
2017-08-03T01:26:26.879Z,17.40
2017-08-03T01:28:54.399Z,17.50
2017-08-03T01:31:21.934Z,17.50
2017-08-03T01:33:49.455Z,17.60
2017-08-03T01:36:17.760Z,17.70
2017-08-03T01:38:45.293Z,17.70
2017-08-03T01:41:12.826Z,17.70
2017-08-03T01:43:40.356Z,17.80
2017-08-03T01:46:07.914Z,17.80
2017-08-03T01:48:35.439Z,17.80
2017-08-03T01:51:02.964Z,17.70
2017-08-03T01:53:30.514Z,17.50
2017-08-03T01:55:58.044Z,17.50
2017-08-03T01:58:26.351Z,17.50
2017-08-03T02:00:53.873Z,17.40
2017-08-03T02:03:21.407Z,17.50
2017-08-03T02:05:48.922Z,17.50
2017-08-03T02:08:16.458Z,17.50
2017-08-03T02:10:43.984Z,17.50
2017-08-03T02:13:11.524Z,17.50
2017-08-03T02:15:39.049Z,17.60
2017-08-03T02:18:06.601Z,17.50
2017-08-03T02:20:34.895Z,17.50
2017-08-03T02:23:02.416Z,17.50
2017-08-03T02:25:29.962Z,17.50
2017-08-03T02:27:57.485Z,17.60
2017-08-03T02:30:25.027Z,17.60
2017-08-03T02:32:53.317Z,17.60
2017-08-03T02:35:20.860Z,17.60
2017-08-03T02:37:48.381Z,17.60
2017-08-03T02:40:16.699Z,17.40
2017-08-03T02:42:44.223Z,17.40
2017-08-03T02:45:12.536Z,17.20
2017-08-03T02:47:40.050Z,17.20
2017-08-03T02:50:07.572Z,17.10
2017-08-03T02:52:35.111Z,17.10
2017-08-03T02:55:02.630Z,17.00
2017-08-03T02:57:30.171Z,17.10
2017-08-03T02:59:57.694Z,17.20
2017-08-03T03:02:26.003Z,17.20
2017-08-03T03:04:53.518Z,17.20
2017-08-03T03:07:21.054Z,17.30
2017-08-03T03:09:49.338Z,17.30
2017-08-03T03:12:16.881Z,17.30
2017-08-03T03:14:44.394Z,17.30
2017-08-03T03:17:11.929Z,17.20
2017-08-03T03:19:39.455Z,17.20
2017-08-03T03:22:07.771Z,17.20
2017-08-03T03:24:35.293Z,17.20
2017-08-03T03:27:02.836Z,17.20
2017-08-03T03:29:31.128Z,17.00
2017-08-03T03:31:58.674Z,17.00
2017-08-03T03:34:26.194Z,17.00
2017-08-03T03:36:53.719Z,17.00
2017-08-03T03:39:21.263Z,17.00
2017-08-03T03:41:48.788Z,17.10
2017-08-03T03:44:16.335Z,16.90
2017-08-03T03:46:43.865Z,16.80
2017-08-03T03:49:11.427Z,16.80
2017-08-03T03:51:38.942Z,16.90
2017-08-03T03:54:06.518Z,16.90
2017-08-03T03:56:34.043Z,17.00
2017-08-03T03:59:01.581Z,17.00
2017-08-03T04:01:29.093Z,17.00
2017-08-03T04:03:57.395Z,16.90
2017-08-03T04:06:24.913Z,16.90
2017-08-03T04:08:52.456Z,17.00
2017-08-03T04:11:19.979Z,16.90
2017-08-03T04:13:47.523Z,17.00
2017-08-03T04:16:15.045Z,17.10
2017-08-03T04:18:42.583Z,17.30
2017-08-03T04:21:10.095Z,17.40
2017-08-03T04:23:37.634Z,17.50
2017-08-03T04:26:05.154Z,17.50
2017-08-03T04:28:32.686Z,17.40
2017-08-03T04:31:00.204Z,17.40
2017-08-03T04:33:27.722Z,17.40
2017-08-03T04:35:55.278Z,17.40
2017-08-03T04:38:22.791Z,17.60
2017-08-03T04:40:51.103Z,17.80
2017-08-03T04:43:18.618Z,17.80
2017-08-03T04:45:46.161Z,17.80
2017-08-03T04:48:13.678Z,17.70
2017-08-03T04:50:41.214Z,17.70
2017-08-03T04:53:08.727Z,17.60
2017-08-03T04:55:37.040Z,17.80
2017-08-03T04:58:04.562Z,17.80
2017-08-03T05:00:32.097Z,17.90
2017-08-03T05:02:59.612Z,17.80
2017-08-03T05:05:27.158Z,17.90
2017-08-03T05:07:54.673Z,18.00
2017-08-03T05:10:22.997Z,18.10
2017-08-03T05:12:50.522Z,18.10
2017-08-03T05:15:18.061Z,18.20
2017-08-03T05:17:45.575Z,18.30
2017-08-03T05:20:13.125Z,18.30
2017-08-03T05:22:40.644Z,18.40
2017-08-03T05:25:08.186Z,18.50
2017-08-03T05:27:35.703Z,18.60
2017-08-03T05:30:03.986Z,18.60
2017-08-03T05:32:32.436Z,18.60
2017-08-03T05:34:59.954Z,18.60
2017-08-03T05:37:27.489Z,18.50
2017-08-03T05:39:55.778Z,18.60
2017-08-03T05:42:24.078Z,18.60
2017-08-03T05:44:51.598Z,18.60
2017-08-03T05:47:19.130Z,18.70
2017-08-03T05:49:47.868Z,18.60
2017-08-03T05:52:16.409Z,18.70
2017-08-03T05:54:43.926Z,18.60
2017-08-03T05:57:12.235Z,18.60
2017-08-03T05:59:39.749Z,18.60
2017-08-03T06:02:07.286Z,18.70
2017-08-03T06:04:34.802Z,18.60
2017-08-03T06:07:02.335Z,18.50
2017-08-03T06:09:29.855Z,18.40
2017-08-03T06:11:58.168Z,18.40
2017-08-03T06:14:25.681Z,18.40
2017-08-03T06:16:53.217Z,18.30
2017-08-03T06:19:20.738Z,18.20
2017-08-03T06:21:48.254Z,18.30
2017-08-03T06:24:15.802Z,18.30
2017-08-03T06:26:44.091Z,18.40
2017-08-03T06:29:11.630Z,18.40
2017-08-03T06:31:39.145Z,18.50
2017-08-03T06:34:07.459Z,18.60
2017-08-03T06:36:34.990Z,18.60
2017-08-03T06:39:02.530Z,18.60
2017-08-03T06:41:30.125Z,18.60
2017-08-03T06:43:57.665Z,18.70
2017-08-03T06:46:25.187Z,18.70
2017-08-03T06:48:52.724Z,18.80
2017-08-03T06:51:21.007Z,18.90
2017-08-03T06:53:48.552Z,18.90
2017-08-03T06:56:16.845Z,19.10
2017-08-03T06:58:44.381Z,19.00
2017-08-03T07:01:11.907Z,19.20
2017-08-03T07:03:39.446Z,19.20
2017-08-03T07:06:06.963Z,19.20
2017-08-03T07:08:34.512Z,19.20
2017-08-03T07:11:02.030Z,19.10
2017-08-03T07:13:29.547Z,19.20
2017-08-03T07:15:57.094Z,19.30
2017-08-03T07:18:24.615Z,19.40
2017-08-03T07:20:52.163Z,19.50
2017-08-03T07:23:19.695Z,19.40
2017-08-03T07:25:47.229Z,19.40
2017-08-03T07:28:14.754Z,19.40
2017-08-03T07:30:43.056Z,19.50
2017-08-03T07:33:10.609Z,19.50
2017-08-03T07:35:38.168Z,19.60
2017-08-03T07:38:05.706Z,19.60
2017-08-03T07:40:33.245Z,19.60
2017-08-03T07:43:00.768Z,19.60
2017-08-03T07:45:29.079Z,19.50
2017-08-03T07:47:56.601Z,19.50
2017-08-03T07:50:24.148Z,19.50
2017-08-03T07:52:51.670Z,19.60
2017-08-03T07:55:19.224Z,19.80
2017-08-03T07:57:46.755Z,19.90
2017-08-03T08:00:14.306Z,20.00
2017-08-03T08:02:41.831Z,20.10
2017-08-03T08:05:09.354Z,20.20
2017-08-03T08:07:36.899Z,20.30
2017-08-03T08:10:04.421Z,20.30
2017-08-03T08:12:31.967Z,20.30
2017-08-03T08:14:59.495Z,20.30
2017-08-03T08:17:27.034Z,20.40
2017-08-03T08:19:54.559Z,20.50
2017-08-03T08:22:22.130Z,20.60
2017-08-03T08:24:49.658Z,20.70
2017-08-03T08:27:17.207Z,20.80
2017-08-03T08:29:44.738Z,20.80
2017-08-03T08:32:12.288Z,20.90
2017-08-03T08:34:39.809Z,20.80
2017-08-03T08:37:08.118Z,20.90
2017-08-03T08:39:35.679Z,20.90
2017-08-03T08:42:03.255Z,20.90
2017-08-03T08:44:30.811Z,20.90
2017-08-03T08:46:58.412Z,20.80
2017-08-03T08:49:25.939Z,20.90
2017-08-03T08:51:53.478Z,21.00
2017-08-03T08:54:21.014Z,21.00
2017-08-03T08:56:48.571Z,21.00
2017-08-03T08:59:16.094Z,21.00
2017-08-03T09:01:43.617Z,21.00
2017-08-03T09:04:11.922Z,21.00
2017-08-03T09:06:39.446Z,21.00
2017-08-03T09:09:07.757Z,21.00
2017-08-03T09:11:35.279Z,21.00
2017-08-03T09:14:02.827Z,20.90
2017-08-03T09:16:30.347Z,20.90
2017-08-03T09:18:59.496Z,20.80
2017-08-03T09:21:27.027Z,20.70
2017-08-03T09:23:55.335Z,20.70
2017-08-03T09:26:22.862Z,20.70
2017-08-03T09:28:51.176Z,20.90
2017-08-03T09:31:18.898Z,20.80
2017-08-03T09:33:47.274Z,20.90
2017-08-03T09:36:14.934Z,20.90
2017-08-03T09:38:42.502Z,21.00
2017-08-03T09:41:13.552Z,21.20
2017-08-03T09:43:41.253Z,21.20
2017-08-03T09:46:08.767Z,21.30
2017-08-03T09:48:37.501Z,21.40
2017-08-03T09:51:05.291Z,21.40
2017-08-03T09:53:33.162Z,21.50
2017-08-03T09:56:00.686Z,21.60
2017-08-03T09:58:29.007Z,21.60
2017-08-03T10:00:56.532Z,21.60
2017-08-03T10:03:24.065Z,21.60
2017-08-03T10:05:51.608Z,21.50
2017-08-03T14:27:37.870Z,27.40
2017-08-03T14:30:05.395Z,27.40
2017-08-03T14:32:32.936Z,27.40
2017-08-03T14:35:00.458Z,27.50
2017-08-03T14:37:27.994Z,27.50
2017-08-03T14:39:56.287Z,27.60
2017-08-03T14:42:23.835Z,27.50
2017-08-03T14:44:52.131Z,27.60
2017-08-03T14:47:19.667Z,27.60
2017-08-03T14:49:47.959Z,27.70
2017-08-03T14:52:15.508Z,27.70
2017-08-03T14:54:43.032Z,27.80
2017-08-03T14:57:11.351Z,27.60
2017-08-03T14:59:38.891Z,27.50
2017-08-03T15:02:06.415Z,27.60
2017-08-03T15:04:33.958Z,27.60
2017-08-03T15:07:01.475Z,27.70
2017-08-03T15:09:29.020Z,27.70
2017-08-03T15:11:56.558Z,27.80
2017-08-03T15:14:24.875Z,27.90
2017-08-03T15:16:53.168Z,28.10
2017-08-03T15:19:20.716Z,28.00
2017-08-03T15:21:48.243Z,28.00
2017-08-03T15:24:15.765Z,27.90
2017-08-03T15:26:43.310Z,28.00
2017-08-03T15:29:11.728Z,28.20
2017-08-03T15:31:40.035Z,28.10
2017-08-03T15:34:07.555Z,28.00
2017-08-03T15:36:35.099Z,28.10
2017-08-03T15:39:02.634Z,28.00
2017-08-03T15:41:30.938Z,27.70
2017-08-03T15:43:58.564Z,27.70
2017-08-03T15:46:26.886Z,27.30
2017-08-03T15:48:54.405Z,27.30
2017-08-03T15:51:21.926Z,27.10
2017-08-03T15:53:50.230Z,26.80
2017-08-03T15:56:17.751Z,26.80
2017-08-03T15:58:45.295Z,26.70
2017-08-03T16:01:12.827Z,26.70
2017-08-03T16:03:40.366Z,26.60
2017-08-03T16:06:07.979Z,26.60
2017-08-03T16:08:35.551Z,26.50
2017-08-03T16:11:03.071Z,26.60
2017-08-03T16:13:30.615Z,26.50
2017-08-03T16:15:58.905Z,26.40
2017-08-03T16:18:26.670Z,26.30
2017-08-03T16:20:54.194Z,26.30
2017-08-03T16:23:21.719Z,26.20
2017-08-03T16:25:49.264Z,26.10
2017-08-03T16:28:17.555Z,26.40
2017-08-03T16:30:45.099Z,26.40
2017-08-03T16:33:12.619Z,26.40
2017-08-03T16:35:40.159Z,26.50
2017-08-03T16:38:08.453Z,26.40
2017-08-03T16:40:35.996Z,26.40
2017-08-03T16:43:03.515Z,26.40
2017-08-03T16:45:31.824Z,26.20
2017-08-03T16:47:59.339Z,26.10
2017-08-03T16:50:27.641Z,25.90
2017-08-03T16:52:55.923Z,25.90
2017-08-03T16:55:23.469Z,25.90
2017-08-03T16:57:51.756Z,25.80
2017-08-03T17:00:19.284Z,25.80
2017-08-03T17:02:46.944Z,25.80
2017-08-03T17:05:14.478Z,25.80
2017-08-03T17:07:42.014Z,25.70
2017-08-03T17:10:10.303Z,25.70
2017-08-03T17:12:37.843Z,25.60
2017-08-03T17:15:05.406Z,25.60
2017-08-03T17:17:33.764Z,25.70
2017-08-03T17:20:01.296Z,25.60
2017-08-03T17:22:28.822Z,25.70
2017-08-03T17:24:56.369Z,25.60
2017-08-03T17:27:24.658Z,25.50
2017-08-03T17:29:52.195Z,25.50
2017-08-03T17:32:19.723Z,25.50
2017-08-03T17:34:47.263Z,25.50
2017-08-03T17:37:14.783Z,25.50
2017-08-03T17:39:42.321Z,25.50
2017-08-03T17:42:10.611Z,25.20
2017-08-03T17:44:38.927Z,25.20
2017-08-03T17:47:06.446Z,25.10
2017-08-03T17:49:33.962Z,25.10
2017-08-03T17:52:01.506Z,25.10
2017-08-03T17:54:29.801Z,25.00
2017-08-03T17:56:57.391Z,25.00
2017-08-03T17:59:24.910Z,24.90
2017-08-03T18:01:52.447Z,24.80
2017-08-03T18:04:19.972Z,24.80
2017-08-03T18:06:47.506Z,24.70
2017-08-03T18:09:15.028Z,24.70
2017-08-03T18:11:42.564Z,24.60
2017-08-03T18:14:10.086Z,24.60
2017-08-03T18:16:37.622Z,24.50
2017-08-03T18:19:05.146Z,24.40
2017-08-03T18:21:32.712Z,24.30
2017-08-03T18:24:01.005Z,24.10
2017-08-03T18:26:28.522Z,24.10
2017-08-03T18:28:56.071Z,24.00
2017-08-03T18:31:24.354Z,23.70
2017-08-03T18:33:51.894Z,23.70
2017-08-03T18:36:20.221Z,23.60
2017-08-03T18:38:47.786Z,23.50
2017-08-03T18:41:16.113Z,23.50
2017-08-03T18:43:43.655Z,23.40
2017-08-03T18:46:11.236Z,23.40
2017-08-03T18:48:38.781Z,23.30
2017-08-03T18:51:06.302Z,23.20
2017-08-03T18:53:33.850Z,23.10
2017-08-03T18:56:01.374Z,23.00
2017-08-03T18:58:28.890Z,23.00
2017-08-03T19:00:56.478Z,22.90
2017-08-03T19:03:24.064Z,22.80
2017-08-03T19:05:51.667Z,22.70
2017-08-03T19:08:19.186Z,22.70
2017-08-03T19:10:46.728Z,22.60
2017-08-03T19:13:15.014Z,22.50
2017-08-03T19:15:42.614Z,22.50
2017-08-03T19:18:10.206Z,22.50
2017-08-03T19:20:37.805Z,22.40
2017-08-03T19:23:05.319Z,22.30
2017-08-03T19:25:33.691Z,22.20
2017-08-03T19:28:01.210Z,22.20
2017-08-03T19:30:28.735Z,22.10
2017-08-03T19:32:57.041Z,22.00
2017-08-03T19:35:24.555Z,22.00
2017-08-03T19:37:52.854Z,22.00
2017-08-03T19:40:20.416Z,22.00
2017-08-03T19:42:47.958Z,21.90
2017-08-03T19:45:15.539Z,21.90
2017-08-03T19:47:43.117Z,21.90
2017-08-03T19:50:11.407Z,21.70
2017-08-03T19:52:38.961Z,21.70
2017-08-03T19:55:06.483Z,21.60
2017-08-03T19:57:34.027Z,21.60
2017-08-03T20:00:01.590Z,21.50
2017-08-03T20:02:29.172Z,21.40
2017-08-03T20:04:56.720Z,21.40
2017-08-03T20:07:31.738Z,21.20
2017-08-03T20:10:00.225Z,21.10
2017-08-03T20:12:28.559Z,21.00
2017-08-03T20:14:56.099Z,21.00
2017-08-03T20:17:23.619Z,20.90
2017-08-03T20:19:51.219Z,20.70
2017-08-03T20:22:18.734Z,20.60
2017-08-03T20:24:46.338Z,20.60
2017-08-03T20:27:13.923Z,20.50
2017-08-03T20:29:41.475Z,20.40
2017-08-03T20:32:08.998Z,20.30
2017-08-03T20:34:36.520Z,20.30
2017-08-03T20:37:04.105Z,20.20
2017-08-03T20:39:31.636Z,20.20
2017-08-03T20:41:59.940Z,20.10
2017-08-03T20:44:27.464Z,20.10
2017-08-03T20:46:55.054Z,20.00
2017-08-03T20:49:22.639Z,20.00
2017-08-03T20:51:50.176Z,20.00
2017-08-03T20:54:17.689Z,20.00
2017-08-03T20:56:45.232Z,20.00
2017-08-03T20:59:12.755Z,19.90
2017-08-03T21:01:40.299Z,19.90
2017-08-03T21:04:07.876Z,19.80
2017-08-03T21:06:35.395Z,19.70
2017-08-03T21:09:02.934Z,19.60
2017-08-03T21:11:30.458Z,19.50
2017-08-03T21:13:58.006Z,19.50
2017-08-03T21:16:25.529Z,19.40
2017-08-03T21:18:53.132Z,19.40
2017-08-03T21:21:20.650Z,19.30
2017-08-03T21:23:48.950Z,19.20
2017-08-03T21:26:16.475Z,19.20
2017-08-03T21:28:44.784Z,19.20
2017-08-03T21:31:12.302Z,19.20
2017-08-03T21:33:39.838Z,19.20
2017-08-03T21:36:07.354Z,19.10
2017-08-03T21:38:34.879Z,19.10
2017-08-03T21:41:03.184Z,19.00
2017-08-03T21:43:30.697Z,19.00
2017-08-03T21:45:58.238Z,19.00
2017-08-03T21:48:25.764Z,19.00
2017-08-03T21:50:53.314Z,19.00
2017-08-03T21:53:21.610Z,18.90
2017-08-03T21:55:49.151Z,18.90
2017-08-03T21:58:17.438Z,18.90
2017-08-03T22:00:56.767Z,18.90
2017-08-03T22:03:24.287Z,18.90
2017-08-03T22:05:51.830Z,18.90
2017-08-03T22:08:19.345Z,18.90
2017-08-03T22:10:46.866Z,18.90
2017-08-03T22:13:14.410Z,18.90
2017-08-03T22:15:41.933Z,19.00
2017-08-03T22:18:09.471Z,19.00
2017-08-03T22:20:36.987Z,19.00
2017-08-03T22:23:04.523Z,19.00
2017-08-03T22:25:32.043Z,19.00
2017-08-03T22:27:59.587Z,19.00
2017-08-03T22:30:27.106Z,19.10
2017-08-03T22:32:54.655Z,19.10
2017-08-03T22:35:23.543Z,19.20
2017-08-03T22:37:51.063Z,19.20
2017-08-03T22:40:18.609Z,19.20
2017-08-03T22:42:47.183Z,19.20
2017-08-03T22:45:14.751Z,19.00
2017-08-03T22:47:42.267Z,18.80
2017-08-03T22:50:09.807Z,18.70
2017-08-03T22:52:37.330Z,18.70
2017-08-03T22:55:04.862Z,18.70
2017-08-03T22:57:32.379Z,18.70
2017-08-03T22:59:59.920Z,18.70
2017-08-03T23:02:27.439Z,18.70
2017-08-03T23:04:55.747Z,18.70
2017-08-03T23:07:23.266Z,18.70
2017-08-03T23:09:51.547Z,18.70
2017-08-03T23:12:19.083Z,18.60
2017-08-03T23:14:46.611Z,18.60
2017-08-03T23:17:14.887Z,18.60
2017-08-03T23:19:42.411Z,18.60
2017-08-03T23:22:09.954Z,18.60
2017-08-03T23:24:37.465Z,18.50
2017-08-03T23:27:05.005Z,18.50
2017-08-03T23:29:32.529Z,18.50
2017-08-03T23:32:00.071Z,18.40
2017-08-03T23:34:27.593Z,18.30
2017-08-03T23:36:55.884Z,18.30
2017-08-03T23:39:24.190Z,18.30
2017-08-03T23:41:51.711Z,18.30
2017-08-03T23:44:19.251Z,18.30
2017-08-03T23:46:46.775Z,18.40
2017-08-03T23:49:14.313Z,18.40
2017-08-03T23:51:42.600Z,18.60
2017-08-03T23:54:10.910Z,18.70
2017-08-03T23:56:38.431Z,18.70
2017-08-03T23:59:05.955Z,18.70
